Terminal Aerodrome Forecast
Issued by NWS Kansas City/Pleasant Hill, MO

Home | Current Version | Previous Version | Text Only | Print | Product List | Glossary On
Versions: 1 2 3 4 5 6 7 8 9 10 11 12 13 14 15 16
000
FTUS43 KEAX 310520
TAFMCI
TAF
KMCI 310520Z 3106/0106 18005KT P6SM SCT250
     FM310900 17004KT 6SM BR SCT040 SCT250
      TEMPO 3109/3113 3SM BR
     FM311600 18006KT P6SM VCSH BKN035
     FM312100 18005KT P6SM SHRA VCTS SCT025CB BKN035
     FM010200 27005KT P6SM SCT120 SCT200=

USA.gov is the U.S. government's official web portal to all federal, state and local government web resources and services.